sensor_id;sensor_type;location;lat;lon;timestamp;pressure;altitude;pressure_sealevel;temperature;humidity
31717;BME280;18301;51.076;17.046;2022-10-17T00:02:34;100991.09;;;15.36;92.36
31717;BME280;18301;51.076;17.046;2022-10-17T00:07:36;100996.47;;;15.48;92.04
31717;BME280;18301;51.076;17.046;2022-10-17T00:12:38;100989.44;;;15.45;90.93
31717;BME280;18301;51.076;17.046;2022-10-17T00:17:39;100990.28;;;15.25;90.63
31717;BME280;18301;51.076;17.046;2022-10-17T00:22:42;100993.88;;;15.14;90.87
31717;BME280;18301;51.076;17.046;2022-10-17T00:27:44;100996.16;;;14.98;91.70
31717;BME280;18301;51.076;17.046;2022-10-17T00:32:46;101006.03;;;14.99;91.73
31717;BME280;18301;51.076;17.046;2022-10-17T00:37:47;101013.56;;;14.95;92.15
31717;BME280;18301;51.076;17.046;2022-10-17T00:42:49;101008.13;;;14.95;91.96
31717;BME280;18301;51.076;17.046;2022-10-17T00:48:04;101017.78;;;14.88;92.17
31717;BME280;18301;51.076;17.046;2022-10-17T00:53:09;101026.06;;;14.86;92.21
31717;BME280;18301;51.076;17.046;2022-10-17T00:58:11;101020.63;;;14.86;92.03
31717;BME280;18301;51.076;17.046;2022-10-17T01:03:13;101017.44;;;14.81;92.39
31717;BME280;18301;51.076;17.046;2022-10-17T01:08:14;101014.47;;;14.84;92.44
31717;BME280;18301;51.076;17.046;2022-10-17T01:13:43;101018.91;;;14.85;92.46
31717;BME280;18301;51.076;17.046;2022-10-17T01:18:58;101019.03;;;14.72;92.48
31717;BME280;18301;51.076;17.046;2022-10-17T01:35:26;101018.19;;;14.72;92.78
31717;BME280;18301;51.076;17.046;2022-10-17T01:40:40;101014.72;;;14.70;92.86
31717;BME280;18301;51.076;17.046;2022-10-17T01:45:52;101024.59;;;14.71;92.45
31717;BME280;18301;51.076;17.046;2022-10-17T01:51:04;101025.09;;;14.65;92.34
31717;BME280;18301;51.076;17.046;2022-10-17T01:56:08;101015.09;;;14.54;92.77
31717;BME280;18301;51.076;17.046;2022-10-17T02:01:14;101014.72;;;14.47;93.15
31717;BME280;18301;51.076;17.046;2022-10-17T02:06:17;101009.28;;;14.47;93.29
31717;BME280;18301;51.076;17.046;2022-10-17T02:11:23;101010.00;;;14.38;93.06
31717;BME280;18301;51.076;17.046;2022-10-17T02:27:42;101009.16;;;14.38;93.36
31717;BME280;18301;51.076;17.046;2022-10-17T02:32:52;101020.09;;;14.25;93.66
31717;BME280;18301;51.076;17.046;2022-10-17T02:37:55;101029.25;;;14.24;94.38
31717;BME280;18301;51.076;17.046;2022-10-17T02:42:59;101035.63;;;14.12;94.63
31717;BME280;18301;51.076;17.046;2022-10-17T02:48:11;101044.06;;;14.20;94.69
31717;BME280;18301;51.076;17.046;2022-10-17T02:53:24;101039.63;;;14.30;94.45
31717;BME280;18301;51.076;17.046;2022-10-17T02:58:31;101032.34;;;14.31;93.87
31717;BME280;18301;51.076;17.046;2022-10-17T03:03:33;101048.00;;;14.27;93.67
31717;BME280;18301;51.076;17.046;2022-10-17T03:08:34;101058.59;;;14.19;94.07
31717;BME280;18301;51.076;17.046;2022-10-17T03:13:36;101052.19;;;14.20;94.15
31717;BME280;18301;51.076;17.046;2022-10-17T03:18:40;101056.63;;;14.21;93.72
31717;BME280;18301;51.076;17.046;2022-10-17T03:23:46;101054.66;;;14.23;93.66
31717;BME280;18301;51.076;17.046;2022-10-17T03:28:48;101054.78;;;14.21;93.47
31717;BME280;18301;51.076;17.046;2022-10-17T03:33:54;101064.78;;;14.21;93.02
31717;BME280;18301;51.076;17.046;2022-10-17T03:38:56;101059.56;;;14.07;92.88
31717;BME280;18301;51.076;17.046;2022-10-17T03:43:57;101066.63;;;13.85;93.52
31717;BME280;18301;51.076;17.046;2022-10-17T03:48:58;101065.91;;;13.83;93.74
31717;BME280;18301;51.076;17.046;2022-10-17T03:54:00;101076.72;;;13.72;94.52
31717;BME280;18301;51.076;17.046;2022-10-17T03:59:02;101068.81;;;13.69;95.21
31717;BME280;18301;51.076;17.046;2022-10-17T04:04:03;101078.91;;;13.67;94.98
31717;BME280;18301;51.076;17.046;2022-10-17T04:09:05;101083.84;;;13.62;95.26
31717;BME280;18301;51.076;17.046;2022-10-17T04:14:08;101077.88;;;13.56;95.25
31717;BME280;18301;51.076;17.046;2022-10-17T04:19:11;101081.34;;;13.58;95.41
31717;BME280;18301;51.076;17.046;2022-10-17T04:24:14;101084.28;;;13.55;95.44
31717;BME280;18301;51.076;17.046;2022-10-17T04:29:15;101085.16;;;13.56;95.41
31717;BME280;18301;51.076;17.046;2022-10-17T04:34:22;101094.38;;;13.53;95.21
31717;BME280;18301;51.076;17.046;2022-10-17T04:39:24;101084.22;;;13.44;95.29
31717;BME280;18301;51.076;17.046;2022-10-17T04:44:26;101084.16;;;13.33;95.45
31717;BME280;18301;51.076;17.046;2022-10-17T04:49:30;101092.94;;;13.24;96.11
31717;BME280;18301;51.076;17.046;2022-10-17T04:54:32;101089.31;;;13.12;96.77
31717;BME280;18301;51.076;17.046;2022-10-17T04:59:33;101089.41;;;13.10;96.85
31717;BME280;18301;51.076;17.046;2022-10-17T05:04:35;101087.00;;;13.19;96.49
31717;BME280;18301;51.076;17.046;2022-10-17T05:09:36;101094.09;;;13.08;96.62
31717;BME280;18301;51.076;17.046;2022-10-17T05:14:38;101102.78;;;13.01;96.89
31717;BME280;18301;51.076;17.046;2022-10-17T05:19:39;101105.38;;;13.02;97.04
31717;BME280;18301;51.076;17.046;2022-10-17T05:24:40;101097.56;;;12.98;97.02
31717;BME280;18301;51.076;17.046;2022-10-17T05:29:42;101113.41;;;12.91;97.29
31717;BME280;18301;51.076;17.046;2022-10-17T05:34:43;101117.09;;;12.90;97.44
31717;BME280;18301;51.076;17.046;2022-10-17T05:39:45;101126.19;;;12.89;98.16
31717;BME280;18301;51.076;17.046;2022-10-17T05:44:51;101124.66;;;12.98;97.97
31717;BME280;18301;51.076;17.046;2022-10-17T05:49:53;101142.88;;;13.08;97.88
31717;BME280;18301;51.076;17.046;2022-10-17T05:54:54;101158.22;;;13.21;97.57
31717;BME280;18301;51.076;17.046;2022-10-17T05:59:56;101152.38;;;13.40;97.06
31717;BME280;18301;51.076;17.046;2022-10-17T06:04:57;101155.47;;;13.46;96.18
31717;BME280;18301;51.076;17.046;2022-10-17T06:09:59;101159.47;;;13.53;96.01
31717;BME280;18301;51.076;17.046;2022-10-17T06:15:00;101164.19;;;13.63;95.62
31717;BME280;18301;51.076;17.046;2022-10-17T06:20:02;101156.81;;;13.65;95.40
31717;BME280;18301;51.076;17.046;2022-10-17T06:25:04;101172.66;;;13.71;95.57
31717;BME280;18301;51.076;17.046;2022-10-17T06:30:06;101175.94;;;13.87;95.20
31717;BME280;18301;51.076;17.046;2022-10-17T06:35:08;101178.94;;;13.95;95.12
31717;BME280;18301;51.076;17.046;2022-10-17T06:40:10;101180.50;;;14.11;94.20
31717;BME280;18301;51.076;17.046;2022-10-17T06:45:12;101174.44;;;14.07;94.53
31717;BME280;18301;51.076;17.046;2022-10-17T06:50:14;101180.50;;;14.22;94.79
31717;BME280;18301;51.076;17.046;2022-10-17T06:55:15;101189.69;;;14.32;94.31
31717;BME280;18301;51.076;17.046;2022-10-17T07:00:23;101187.00;;;14.43;94.53
31717;BME280;18301;51.076;17.046;2022-10-17T07:05:26;101199.19;;;14.62;94.20
31717;BME280;18301;51.076;17.046;2022-10-17T07:10:28;101201.56;;;14.78;94.11
31717;BME280;18301;51.076;17.046;2022-10-17T07:15:29;101203.72;;;14.96;93.62
31717;BME280;18301;51.076;17.046;2022-10-17T07:20:32;101206.69;;;15.16;93.22
31717;BME280;18301;51.076;17.046;2022-10-17T07:25:35;101205.69;;;15.28;92.56
31717;BME280;18301;51.076;17.046;2022-10-17T07:30:40;101203.44;;;15.56;92.38
31717;BME280;18301;51.076;17.046;2022-10-17T07:35:42;101213.94;;;15.83;91.16
31717;BME280;18301;51.076;17.046;2022-10-17T07:40:44;101207.75;;;16.13;91.01
31717;BME280;18301;51.076;17.046;2022-10-17T07:45:45;101217.31;;;16.40;90.59
31717;BME280;18301;51.076;17.046;2022-10-17T07:50:47;101209.75;;;16.75;88.87
31717;BME280;18301;51.076;17.046;2022-10-17T07:55:49;101211.50;;;17.07;88.51
31717;BME280;18301;51.076;17.046;2022-10-17T08:00:51;101216.06;;;17.28;85.32
31717;BME280;18301;51.076;17.046;2022-10-17T08:05:56;101224.91;;;17.60;85.97
31717;BME280;18301;51.076;17.046;2022-10-17T08:11:03;101228.06;;;17.96;85.55
31717;BME280;18301;51.076;17.046;2022-10-17T08:16:08;101213.72;;;18.23;82.13
31717;BME280;18301;51.076;17.046;2022-10-17T08:21:11;101211.69;;;18.54;82.79
31717;BME280;18301;51.076;17.046;2022-10-17T08:26:13;101217.59;;;18.79;81.29
31717;BME280;18301;51.076;17.046;2022-10-17T08:31:18;101215.41;;;18.92;81.61
31717;BME280;18301;51.076;17.046;2022-10-17T08:36:20;101216.53;;;19.09;80.28
31717;BME280;18301;51.076;17.046;2022-10-17T08:46:47;101216.06;;;19.51;79.31
31717;BME280;18301;51.076;17.046;2022-10-17T08:51:58;101205.34;;;19.58;75.63
31717;BME280;18301;51.076;17.046;2022-10-17T08:57:03;101202.94;;;19.82;73.30
31717;BME280;18301;51.076;17.046;2022-10-17T09:18:32;101207.97;;;20.40;70.30
31717;BME280;18301;51.076;17.046;2022-10-17T09:23:51;101197.22;;;20.57;69.31
31717;BME280;18301;51.076;17.046;2022-10-17T09:29:24;101200.47;;;20.78;70.89
31717;BME280;18301;51.076;17.046;2022-10-17T09:34:31;101191.31;;;20.96;69.22
31717;BME280;18301;51.076;17.046;2022-10-17T09:39:33;101194.84;;;21.14;68.15
31717;BME280;18301;51.076;17.046;2022-10-17T09:50:16;101197.41;;;21.42;68.53
31717;BME280;18301;51.076;17.046;2022-10-17T09:55:46;101190.97;;;21.59;67.20
31717;BME280;18301;51.076;17.046;2022-10-17T10:00:50;101196.81;;;21.64;65.40
31717;BME280;18301;51.076;17.046;2022-10-17T10:06:12;101203.38;;;21.71;63.97
31717;BME280;18301;51.076;17.046;2022-10-17T10:11:14;101198.41;;;21.75;64.33
31717;BME280;18301;51.076;17.046;2022-10-17T10:16:29;101194.50;;;21.94;65.19
31717;BME280;18301;51.076;17.046;2022-10-17T10:21:31;101192.53;;;22.20;62.80
31717;BME280;18301;51.076;17.046;2022-10-17T10:26:44;101190.25;;;22.16;63.73
31717;BME280;18301;51.076;17.046;2022-10-17T10:31:46;101197.03;;;22.29;61.18
31717;BME280;18301;51.076;17.046;2022-10-17T10:36:59;101190.84;;;22.36;62.97
31717;BME280;18301;51.076;17.046;2022-10-17T10:42:05;101193.56;;;22.44;62.85
31717;BME280;18301;51.076;17.046;2022-10-17T10:47:16;101188.78;;;22.54;60.46
31717;BME280;18301;51.076;17.046;2022-10-17T10:52:31;101185.69;;;22.57;60.60
31717;BME280;18301;51.076;17.046;2022-10-17T10:57:35;101174.00;;;22.63;59.71
31717;BME280;18301;51.076;17.046;2022-10-17T11:02:44;101178.09;;;22.75;60.83
31717;BME280;18301;51.076;17.046;2022-10-17T11:08:20;101176.19;;;22.76;59.49
31717;BME280;18301;51.076;17.046;2022-10-17T11:13:35;101166.06;;;22.77;59.66
31717;BME280;18301;51.076;17.046;2022-10-17T11:18:43;101166.75;;;22.70;58.61
31717;BME280;18301;51.076;17.046;2022-10-17T11:23:47;101163.28;;;22.85;58.13
31717;BME280;18301;51.076;17.046;2022-10-17T11:28:53;101161.22;;;23.03;57.29
31717;BME280;18301;51.076;17.046;2022-10-17T11:39:03;101147.75;;;23.16;57.99
31717;BME280;18301;51.076;17.046;2022-10-17T11:44:21;101149.59;;;23.24;56.58
31717;BME280;18301;51.076;17.046;2022-10-17T11:49:33;101147.00;;;23.31;56.12
31717;BME280;18301;51.076;17.046;2022-10-17T11:54:44;101142.13;;;23.41;55.68
31717;BME280;18301;51.076;17.046;2022-10-17T12:05:02;101123.38;;;23.76;57.62
31717;BME280;18301;51.076;17.046;2022-10-17T12:10:32;101120.38;;;23.85;55.30
31717;BME280;18301;51.076;17.046;2022-10-17T12:15:37;101117.66;;;24.08;56.09
31717;BME280;18301;51.076;17.046;2022-10-17T12:20:39;101121.94;;;24.11;54.28
31717;BME280;18301;51.076;17.046;2022-10-17T12:57:37;101103.53;;;24.03;54.14
31717;BME280;18301;51.076;17.046;2022-10-17T13:02:40;101097.66;;;24.06;55.25
31717;BME280;18301;51.076;17.046;2022-10-17T13:07:44;101100.47;;;23.98;54.97
31717;BME280;18301;51.076;17.046;2022-10-17T13:12:49;101112.44;;;23.91;54.95
31717;BME280;18301;51.076;17.046;2022-10-17T13:17:58;101111.13;;;24.01;56.03
31717;BME280;18301;51.076;17.046;2022-10-17T13:23:00;101103.44;;;23.97;55.37
31717;BME280;18301;51.076;17.046;2022-10-17T13:28:10;101107.59;;;23.93;55.31
31717;BME280;18301;51.076;17.046;2022-10-17T13:33:26;101099.50;;;23.91;56.58
31717;BME280;18301;51.076;17.046;2022-10-17T13:38:31;101084.00;;;23.90;55.42
31717;BME280;18301;51.076;17.046;2022-10-17T13:43:37;101083.31;;;23.88;55.09
31717;BME280;18301;51.076;17.046;2022-10-17T13:48:39;101080.63;;;23.80;54.85
31717;BME280;18301;51.076;17.046;2022-10-17T13:53:40;101088.22;;;23.78;56.00
31717;BME280;18301;51.076;17.046;2022-10-17T13:58:49;101085.16;;;23.73;55.32
31717;BME280;18301;51.076;17.046;2022-10-17T14:03:51;101094.81;;;23.69;54.07
31717;BME280;18301;51.076;17.046;2022-10-17T14:09:26;101080.34;;;23.66;55.43
31717;BME280;18301;51.076;17.046;2022-10-17T14:14:29;101095.81;;;23.67;53.44
31717;BME280;18301;51.076;17.046;2022-10-17T14:19:51;101091.34;;;23.43;52.47
31717;BME280;18301;51.076;17.046;2022-10-17T14:25:32;101087.91;;;23.41;54.26
31717;BME280;18301;51.076;17.046;2022-10-17T14:30:39;101072.00;;;23.20;52.57
31717;BME280;18301;51.076;17.046;2022-10-17T14:36:00;101080.97;;;23.14;53.44
31717;BME280;18301;51.076;17.046;2022-10-17T14:41:06;101081.69;;;23.08;54.41
31717;BME280;18301;51.076;17.046;2022-10-17T14:46:29;101090.00;;;23.00;55.49
31717;BME280;18301;51.076;17.046;2022-10-17T14:51:31;101083.78;;;22.90;56.01
31717;BME280;18301;51.076;17.046;2022-10-17T14:56:53;101086.41;;;22.75;56.15
31717;BME280;18301;51.076;17.046;2022-10-17T15:01:56;101081.47;;;22.62;56.81
31717;BME280;18301;51.076;17.046;2022-10-17T15:06:57;101080.81;;;22.44;57.37
31717;BME280;18301;51.076;17.046;2022-10-17T15:12:00;101079.44;;;22.32;57.81
31717;BME280;18301;51.076;17.046;2022-10-17T15:17:09;101075.69;;;22.16;58.12
31717;BME280;18301;51.076;17.046;2022-10-17T15:22:12;101072.75;;;22.01;57.85
31717;BME280;18301;51.076;17.046;2022-10-17T15:27:21;101079.25;;;21.84;58.21
31717;BME280;18301;51.076;17.046;2022-10-17T15:32:23;101076.34;;;21.77;58.29
31717;BME280;18301;51.076;17.046;2022-10-17T15:37:24;101070.78;;;21.61;58.53
31717;BME280;18301;51.076;17.046;2022-10-17T15:42:28;101062.56;;;21.53;59.13
31717;BME280;18301;51.076;17.046;2022-10-17T15:47:31;101072.63;;;21.36;59.54
31717;BME280;18301;51.076;17.046;2022-10-17T15:52:35;101077.84;;;21.13;59.66
31717;BME280;18301;51.076;17.046;2022-10-17T15:57:40;101076.38;;;20.84;59.34
31717;BME280;18301;51.076;17.046;2022-10-17T16:02:43;101083.84;;;20.74;58.78
31717;BME280;18301;51.076;17.046;2022-10-17T16:07:44;101087.09;;;20.69;59.49
31717;BME280;18301;51.076;17.046;2022-10-17T16:12:47;101080.22;;;20.48;59.26
31717;BME280;18301;51.076;17.046;2022-10-17T16:17:51;101079.91;;;20.51;59.48
31717;BME280;18301;51.076;17.046;2022-10-17T16:22:53;101079.84;;;20.42;59.56
31717;BME280;18301;51.076;17.046;2022-10-17T16:28:00;101079.72;;;20.26;59.61
31717;BME280;18301;51.076;17.046;2022-10-17T16:33:01;101081.69;;;20.16;59.84
31717;BME280;18301;51.076;17.046;2022-10-17T16:38:05;101074.75;;;20.04;60.31
31717;BME280;18301;51.076;17.046;2022-10-17T16:43:10;101066.06;;;19.72;60.82
31717;BME280;18301;51.076;17.046;2022-10-17T16:48:13;101080.56;;;19.65;61.78
31717;BME280;18301;51.076;17.046;2022-10-17T16:53:14;101070.75;;;19.62;61.31
31717;BME280;18301;51.076;17.046;2022-10-17T16:58:16;101076.59;;;19.49;61.79
31717;BME280;18301;51.076;17.046;2022-10-17T17:03:17;101080.09;;;19.42;62.14
31717;BME280;18301;51.076;17.046;2022-10-17T17:08:18;101072.38;;;19.37;61.65
31717;BME280;18301;51.076;17.046;2022-10-17T17:13:20;101086.66;;;19.31;62.12
31717;BME280;18301;51.076;17.046;2022-10-17T17:18:21;101081.25;;;19.39;61.51
31717;BME280;18301;51.076;17.046;2022-10-17T17:23:23;101087.88;;;19.46;61.46
31717;BME280;18301;51.076;17.046;2022-10-17T17:28:25;101080.34;;;19.48;61.28
31717;BME280;18301;51.076;17.046;2022-10-17T17:33:27;101084.72;;;19.41;61.37
31717;BME280;18301;51.076;17.046;2022-10-17T17:38:32;101080.16;;;19.32;62.28
31717;BME280;18301;51.076;17.046;2022-10-17T17:43:34;101084.53;;;19.25;61.79
31717;BME280;18301;51.076;17.046;2022-10-17T17:48:39;101076.47;;;19.23;62.03
31717;BME280;18301;51.076;17.046;2022-10-17T17:53:41;101077.53;;;19.40;61.04
31717;BME280;18301;51.076;17.046;2022-10-17T17:58:44;101083.22;;;19.29;61.11
31717;BME280;18301;51.076;17.046;2022-10-17T18:03:48;101086.97;;;19.28;61.73
31717;BME280;18301;51.076;17.046;2022-10-17T18:08:52;101082.66;;;19.25;61.50
31717;BME280;18301;51.076;17.046;2022-10-17T18:14:05;101095.00;;;19.29;61.55
31717;BME280;18301;51.076;17.046;2022-10-17T18:19:09;101090.31;;;19.22;61.83
31717;BME280;18301;51.076;17.046;2022-10-17T18:24:11;101094.63;;;19.24;61.57
31717;BME280;18301;51.076;17.046;2022-10-17T18:29:12;101094.94;;;19.21;61.97
31717;BME280;18301;51.076;17.046;2022-10-17T18:34:14;101084.31;;;19.08;62.06
31717;BME280;18301;51.076;17.046;2022-10-17T18:39:15;101094.72;;;19.05;61.74
31717;BME280;18301;51.076;17.046;2022-10-17T18:44:16;101095.13;;;19.10;61.98
31717;BME280;18301;51.076;17.046;2022-10-17T18:49:19;101092.28;;;19.02;61.94
31717;BME280;18301;51.076;17.046;2022-10-17T18:54:21;101088.56;;;18.93;62.41
31717;BME280;18301;51.076;17.046;2022-10-17T18:59:24;101090.63;;;18.91;62.35
31717;BME280;18301;51.076;17.046;2022-10-17T19:04:26;101093.66;;;18.88;62.65
31717;BME280;18301;51.076;17.046;2022-10-17T19:09:27;101091.97;;;18.68;62.66
31717;BME280;18301;51.076;17.046;2022-10-17T19:14:29;101092.81;;;18.78;62.70
31717;BME280;18301;51.076;17.046;2022-10-17T19:19:30;101099.28;;;18.77;62.68
31717;BME280;18301;51.076;17.046;2022-10-17T19:24:32;101096.69;;;18.66;62.71
31717;BME280;18301;51.076;17.046;2022-10-17T19:29:34;101095.16;;;18.53;63.02
31717;BME280;18301;51.076;17.046;2022-10-17T19:34:35;101103.22;;;18.55;63.07
31717;BME280;18301;51.076;17.046;2022-10-17T19:39:37;101099.78;;;18.43;63.64
31717;BME280;18301;51.076;17.046;2022-10-17T19:44:39;101096.63;;;18.38;63.71
31717;BME280;18301;51.076;17.046;2022-10-17T19:49:40;101103.00;;;18.29;64.04
31717;BME280;18301;51.076;17.046;2022-10-17T19:54:44;101107.00;;;18.25;64.12
31717;BME280;18301;51.076;17.046;2022-10-17T19:59:46;101103.28;;;18.16;64.48
31717;BME280;18301;51.076;17.046;2022-10-17T20:04:49;101101.44;;;18.16;64.46
31717;BME280;18301;51.076;17.046;2022-10-17T20:10:10;101096.97;;;18.15;64.31
31717;BME280;18301;51.076;17.046;2022-10-17T20:15:12;101108.19;;;18.12;64.50
31717;BME280;18301;51.076;17.046;2022-10-17T20:20:14;101113.34;;;18.15;64.23
31717;BME280;18301;51.076;17.046;2022-10-17T20:25:15;101104.31;;;18.15;64.27
31717;BME280;18301;51.076;17.046;2022-10-17T20:30:17;101115.94;;;18.17;64.21
31717;BME280;18301;51.076;17.046;2022-10-17T20:35:18;101122.56;;;18.05;64.42
31717;BME280;18301;51.076;17.046;2022-10-17T20:40:20;101132.78;;;17.93;65.01
31717;BME280;18301;51.076;17.046;2022-10-17T20:45:39;101146.13;;;17.86;65.27
31717;BME280;18301;51.076;17.046;2022-10-17T20:50:52;101133.44;;;17.76;65.43
31717;BME280;18301;51.076;17.046;2022-10-17T20:56:00;101136.31;;;17.64;65.64
31717;BME280;18301;51.076;17.046;2022-10-17T21:01:06;101140.88;;;17.64;65.76
31717;BME280;18301;51.076;17.046;2022-10-17T21:06:09;101137.28;;;17.63;65.69
31717;BME280;18301;51.076;17.046;2022-10-17T21:11:17;101119.03;;;17.54;65.81
31717;BME280;18301;51.076;17.046;2022-10-17T21:16:19;101128.25;;;17.53;65.76
31717;BME280;18301;51.076;17.046;2022-10-17T21:21:23;101129.47;;;17.39;66.10
31717;BME280;18301;51.076;17.046;2022-10-17T21:26:27;101138.56;;;17.40;65.89
31717;BME280;18301;51.076;17.046;2022-10-17T21:31:28;101124.47;;;17.35;66.18
31717;BME280;18301;51.076;17.046;2022-10-17T21:36:30;101126.16;;;17.26;66.18
31717;BME280;18301;51.076;17.046;2022-10-17T21:41:32;101131.00;;;17.13;66.50
31717;BME280;18301;51.076;17.046;2022-10-17T21:46:33;101138.19;;;17.23;66.41
31717;BME280;18301;51.076;17.046;2022-10-17T21:51:34;101134.50;;;17.24;66.39
31717;BME280;18301;51.076;17.046;2022-10-17T21:56:36;101131.59;;;17.16;66.91
31717;BME280;18301;51.076;17.046;2022-10-17T22:01:39;101130.50;;;16.98;67.18
31717;BME280;18301;51.076;17.046;2022-10-17T22:06:43;101120.22;;;16.80;67.78
31717;BME280;18301;51.076;17.046;2022-10-17T22:11:47;101107.59;;;16.79;67.66
31717;BME280;18301;51.076;17.046;2022-10-17T22:16:49;101117.38;;;16.82;67.62
31717;BME280;18301;51.076;17.046;2022-10-17T22:21:51;101113.94;;;16.90;67.17
31717;BME280;18301;51.076;17.046;2022-10-17T22:26:52;101113.94;;;16.90;67.17
31717;BME280;18301;51.076;17.046;2022-10-17T22:31:54;101120.22;;;16.80;67.34
31717;BME280;18301;51.076;17.046;2022-10-17T22:36:55;101108.38;;;16.70;67.75
31717;BME280;18301;51.076;17.046;2022-10-17T22:41:57;101105.53;;;16.72;67.73
31717;BME280;18301;51.076;17.046;2022-10-17T22:46:58;101106.41;;;16.72;67.80
31717;BME280;18301;51.076;17.046;2022-10-17T22:51:59;101103.28;;;16.77;67.59
31717;BME280;18301;51.076;17.046;2022-10-17T22:57:01;101103.16;;;16.78;67.38
31717;BME280;18301;51.076;17.046;2022-10-17T23:02:03;101110.09;;;16.71;67.71
31717;BME280;18301;51.076;17.046;2022-10-17T23:07:04;101109.47;;;16.58;68.24
31717;BME280;18301;51.076;17.046;2022-10-17T23:12:11;101109.53;;;16.47;68.79
31717;BME280;18301;51.076;17.046;2022-10-17T23:17:13;101104.63;;;16.41;69.03
31717;BME280;18301;51.076;17.046;2022-10-17T23:22:14;101102.78;;;16.41;69.09
31717;BME280;18301;51.076;17.046;2022-10-17T23:27:16;101102.78;;;16.41;69.06
31717;BME280;18301;51.076;17.046;2022-10-17T23:32:19;101089.81;;;16.33;69.30
31717;BME280;18301;51.076;17.046;2022-10-17T23:37:20;101087.25;;;16.32;69.46
31717;BME280;18301;51.076;17.046;2022-10-17T23:42:22;101084.44;;;16.22;69.75
31717;BME280;18301;51.076;17.046;2022-10-17T23:47:23;101085.97;;;16.15;69.95
31717;BME280;18301;51.076;17.046;2022-10-17T23:52:25;101079.59;;;16.05;70.33
31717;BME280;18301;51.076;17.046;2022-10-17T23:57:26;101086.66;;;16.07;70.25
